Onde está Almada, Santarem en Portugal?

 

Almada está situado na região Santarem em Portugal!

Buscar o nome de uma cidade:

Almas, Alma Lake, Almáskúttanya, Almazora/Almassora, Almarjão

Aqui você vai encontrar a localização de Almada em um mapa.
Para ver como ele atualmente parece, abaixo estão algumas fotos da região, com webcams online.
Você também pode encontrar a distância para as principais cidades da região e de cidades do resto do Portugal.

3 lugares nomeadas Almada na Portugal.

Todos os lugares do mundo chamado .


Onde está Almada no mapa?




Webcams perto Almada

Vasco Carão › South: Garrocheira, Benavente − Airport.


Vasco Carão › South: Garrocheira, Benavente − Airport - Dia
Actual
Vasco Carão › South: Garrocheira, Benavente − Airport - Actual

Benavente › North-East: AIrport, METAR: BENAV 180005Z 36004KT 17/14 Q1015.


Benavente › North-East: AIrport, METAR: BENAV 180005Z 36004KT 17/14 Q1015 - Dia
Actual
Benavente › North-East: AIrport, METAR: BENAV 180005Z 36004KT 17/14 Q1015 - Actual

Lisbon › South: Rua Vasco da Gama.


Lisbon › South: Rua Vasco da Gama - Dia
Actual
Lisbon › South: Rua Vasco da Gama - Actual

Webcams provided by webcams.travel


Distâncias

Onde está Almada em relação a outros lugares?

Top 10 cidades em Santarem e distância de Almada.

Cidade#Populaçãokmmilhas
Santarém1293853723
Entroncamento2198876641
Tomar3191688251
Torres Novas4145266641
Samora Correia5141541610
Abrantes6136467647
Ourém7127298452
Rio Maior8120645333
Fátima9117988050
Almeirim10115563522

Top 10 cidades em Portugal e distância de Almada.

Cidade # Populaçãokmmilhas
Lisbon15177984327
Porto2249630251156
Amadora31788565031
Braga4121393296184
Setúbal51171094528
Coimbra610658014691
Queluz71033985132
Funchal8980411015631
Vila Nova de Gaia970810248154
Loures10662304226



Info

Estatística e Geografia

Portugal é composta de 15299 cidades em 20 regiões.

A região de Santarem tem 1174 cidades.

Almada é o número 70 na região Santarem.

A cidade é o número 1048 na Portugal.

Onde está Almada, Santarem en Portugal?